Time;durP1;ratioP1;P1;durP2;ratioP2;P2;SDS_P1;SDS_P2;PMS_P1;PMS_P2;Temp;Humidity;BMP_temperature;BMP_pressure;BME280_temperature;BME280_humidity;BME280_pressure;Samples;Min_cycle;Max_cycle;Signal;HPM_P1;HPM_P2
2022/11/23 00:02:04;;;;;;;17.33;7.50;;;;;;;14.91;51.45;92002.28;5064294;28;20036;-83
2022/11/23 00:04:29;;;;;;;103.95;66.32;;;;;;;14.90;51.67;92003.53;5065926;28;20032;-85
2022/11/23 00:06:54;;;;;;;54.13;29.20;;;;;;;14.89;51.62;92005.50;5079116;28;20098;-84
2022/11/23 00:09:20;;;;;;;24.85;10.18;;;;;;;14.91;51.70;91997.56;5071774;28;20527;-83
2022/11/23 00:11:45;;;;;;;25.95;11.63;;;;;;;14.87;51.70;92010.00;5068395;28;20044;-84
2022/11/23 00:14:11;;;;;;;27.90;11.00;;;;;;;14.91;51.90;92002.28;5070020;28;20029;-85
2022/11/23 00:16:36;;;;;;;24.83;11.13;;;;;;;14.90;51.71;92004.25;5069862;28;20032;-86
2022/11/23 00:19:02;;;;;;;22.88;11.57;;;;;;;14.93;51.89;91997.03;5055438;28;20303;-86
2022/11/23 00:21:29;;;;;;;25.33;11.77;;;;;;;14.91;51.63;92005.72;5060660;28;20044;-83
2022/11/23 00:23:54;;;;;;;18.55;10.40;;;;;;;14.92;51.50;92007.19;5055184;28;20075;-91
2022/11/23 00:26:20;;;;;;;16.73;10.60;;;;;;;14.90;51.77;92009.69;5051889;28;20037;-86
2022/11/23 00:28:45;;;;;;;25.73;11.05;;;;;;;14.90;51.62;92006.25;5071600;28;20388;-84
2022/11/23 00:31:19;;;;;;;24.73;10.40;;;;;;;14.88;51.55;92008.75;5063857;28;20554;-82
2022/11/23 00:33:52;;;;;;;21.27;9.57;;;;;;;14.87;51.77;92010.00;5087089;28;20255;-84
2022/11/23 00:36:17;;;;;;;20.30;9.70;;;;;;;14.89;51.48;92010.97;5073655;28;20128;-88
2022/11/23 00:38:43;;;;;;;20.30;10.02;;;;;;;14.86;51.87;92001.13;5074997;28;20112;-87
2022/11/23 00:41:11;;;;;;;24.52;9.13;;;;;;;14.90;51.69;92015.16;5071672;28;20028;-85
2022/11/23 00:43:37;;;;;;;15.52;8.50;;;;;;;14.89;51.55;92016.41;5089540;28;20228;-84
2022/11/23 00:46:11;;;;;;;23.95;9.25;;;;;;;14.90;51.42;92014.41;5080564;28;20040;-86
2022/11/23 00:48:36;;;;;;;17.20;8.35;;;;;;;14.92;51.53;92012.63;5072340;28;20517;-84
2022/11/23 00:51:03;;;;;;;19.60;9.25;;;;;;;14.89;51.57;92010.97;5090500;28;20041;-83
2022/11/23 00:53:29;;;;;;;33.42;9.82;;;;;;;14.88;51.65;92020.38;5084485;28;20064;-83
2022/11/23 00:55:55;;;;;;;14.25;7.53;;;;;;;14.88;51.61;92009.50;5071735;28;20036;-84
2022/11/23 00:58:20;;;;;;;16.08;7.97;;;;;;;14.89;51.79;92016.41;5073099;28;20098;-83
2022/11/23 01:00:46;;;;;;;20.15;8.50;;;;;;;14.88;51.92;92023.09;5071227;28;20032;-83
2022/11/23 01:03:11;;;;;;;20.40;8.13;;;;;;;14.90;51.33;92022.56;5071583;28;20097;-84
2022/11/23 01:05:36;;;;;;;14.55;8.05;;;;;;;14.87;51.89;92018.91;5072315;28;20256;-83
2022/11/23 01:08:03;;;;;;;16.58;8.00;;;;;;;14.90;51.77;92025.28;5076760;28;20427;-83
2022/11/23 01:10:29;;;;;;;25.95;9.25;;;;;;;14.88;51.88;92023.09;5067404;28;20256;-84
2022/11/23 01:12:54;;;;;;;30.08;9.27;;;;;;;14.88;51.83;92025.06;5078256;28;20028;-85
2022/11/23 01:15:19;;;;;;;17.08;7.35;;;;;;;14.87;51.50;92021.63;5073489;28;20044;-91
2022/11/23 01:17:45;;;;;;;18.40;8.32;;;;;;;14.89;51.41;92021.09;5069046;28;20491;-88
2022/11/23 01:20:10;;;;;;;22.27;7.72;;;;;;;14.91;51.59;92022.06;5068078;28;20040;-84
2022/11/23 01:22:36;;;;;;;35.05;12.48;;;;;;;14.90;51.71;92022.56;5068758;28;20036;-89
2022/11/23 01:25:01;;;;;;;25.38;12.00;;;;;;;14.90;51.64;92028.00;5068313;28;20067;-84
2022/11/23 01:27:27;;;;;;;22.67;10.48;;;;;;;14.88;51.49;92028.53;5051160;28;20039;-84
2022/11/23 01:29:52;;;;;;;20.58;9.85;;;;;;;14.89;51.70;92029.25;5068342;28;20048;-83
2022/11/23 01:32:17;;;;;;;20.10;10.52;;;;;;;14.87;51.63;92027.06;5086487;28;20040;-84
2022/11/23 01:34:43;;;;;;;20.77;9.95;;;;;;;14.85;51.54;92032.28;5078588;28;20047;-84
2022/11/23 01:37:09;;;;;;;20.95;8.57;;;;;;;14.87;51.59;92026.34;5041014;28;20047;-84
2022/11/23 01:39:35;;;;;;;28.77;10.88;;;;;;;14.88;51.89;92033.25;5069547;28;20032;-84
2022/11/23 01:42:00;;;;;;;16.83;8.85;;;;;;;14.86;51.56;92033.75;5050668;28;20064;-83
2022/11/23 01:44:30;;;;;;;20.85;11.05;;;;;;;14.87;51.72;92034.50;5074465;28;20506;-84
2022/11/23 01:47:02;;;;;;;15.60;8.25;;;;;;;14.85;51.46;92035.00;5067894;28;20036;-84
2022/11/23 01:49:30;;;;;;;17.60;8.25;;;;;;;14.87;51.37;92034.50;5070160;28;20080;-86
2022/11/23 01:51:57;;;;;;;19.25;8.60;;;;;;;14.87;51.35;92034.50;5089147;28;20119;-88
2022/11/23 01:54:29;;;;;;;21.77;7.28;;;;;;;14.87;51.70;92035.22;5088328;28;20044;-84
2022/11/23 01:56:56;;;;;;;25.83;8.27;;;;;;;14.87;51.45;92031.78;5077555;28;20040;-87
2022/11/23 01:59:22;;;;;;;24.95;8.55;;;;;;;14.88;51.36;92028.53;5070645;28;20032;-84
2022/11/23 02:01:47;;;;;;;17.48;7.28;;;;;;;14.89;51.35;92038.16;5088274;28;20086;-84
2022/11/23 02:04:21;;;;;;;22.92;8.55;;;;;;;14.89;51.48;92043.59;5085395;28;20483;-84
2022/11/23 02:06:46;;;;;;;23.40;8.50;;;;;;;14.90;51.19;92036.91;5068661;28;20491;-84
2022/11/23 02:09:12;;;;;;;26.00;8.23;;;;;;;14.90;51.47;92039.63;5050038;28;20055;-86
2022/11/23 02:11:38;;;;;;;22.85;7.78;;;;;;;14.91;51.83;92034.91;5051494;28;20036;-84
2022/11/23 02:14:03;;;;;;;16.70;7.40;;;;;;;14.89;51.39;92042.88;5082004;28;20036;-92
2022/11/23 02:16:28;;;;;;;19.80;6.80;;;;;;;14.89;51.48;92042.88;5069255;28;20090;-85
2022/11/23 02:18:54;;;;;;;20.90;8.20;;;;;;;14.86;51.44;92047.38;5067955;28;20032;-82
2022/11/23 02:21:19;;;;;;;19.30;7.38;;;;;;;14.88;51.64;92038.69;5070964;28;20048;-84
2022/11/23 02:23:56;;;;;;;29.77;10.77;;;;;;;14.90;51.77;92045.06;5088900;28;20031;-92
2022/11/23 02:26:27;;;;;;;26.45;9.35;;;;;;;14.87;51.41;92032.50;5070235;28;20050;-84
2022/11/23 02:29:02;;;;;;;30.10;11.68;;;;;;;14.90;51.50;92038.91;5085266;28;20041;-85
2022/11/23 02:31:28;;;;;;;29.02;13.43;;;;;;;14.88;51.29;92050.31;5043510;28;20047;-84
2022/11/23 02:33:53;;;;;;;21.27;9.43;;;;;;;14.90;51.28;92036.19;5051268;28;20037;-84
2022/11/23 02:36:35;;;;;;;19.48;9.57;;;;;;;14.88;51.63;92042.13;5059228;28;20041;-87
2022/11/23 02:39:05;;;;;;;23.92;9.63;;;;;;;14.87;51.63;92040.66;5051038;28;20055;-83
2022/11/23 02:41:36;;;;;;;24.83;9.20;;;;;;;14.87;51.37;92046.13;5059303;28;20415;-84
2022/11/23 02:44:01;;;;;;;30.30;9.57;;;;;;;14.89;51.32;92040.88;5067476;28;20066;-83
2022/11/23 02:46:27;;;;;;;35.38;9.05;;;;;;;14.87;51.63;92042.66;5074982;28;20074;-84
2022/11/23 02:48:52;;;;;;;19.25;8.63;;;;;;;14.86;51.41;92047.38;5068004;28;20044;-85
2022/11/23 02:51:17;;;;;;;25.90;9.32;;;;;;;14.88;51.69;92046.84;5065681;28;20499;-85
2022/11/23 02:53:43;;;;;;;28.33;9.30;;;;;;;14.89;51.25;92043.59;5067954;28;20048;-87
2022/11/23 02:56:08;;;;;;;24.70;9.05;;;;;;;14.87;51.50;92050.81;5066532;28;20040;-87
2022/11/23 02:58:34;;;;;;;25.58;8.50;;;;;;;14.86;51.56;92046.63;5087637;28;20043;-86
2022/11/23 03:01:02;;;;;;;28.70;8.35;;;;;;;14.88;51.35;92044.13;5078366;28;20092;-85
2022/11/23 03:03:27;;;;;;;29.63;9.48;;;;;;;14.87;51.24;92042.66;5077907;28;20039;-86
2022/11/23 03:05:53;;;;;;;21.88;7.95;;;;;;;14.88;51.33;92041.41;5073233;28;20040;-84
2022/11/23 03:08:18;;;;;;;23.60;8.07;;;;;;;14.88;51.50;92044.13;5050639;28;20529;-88
2022/11/23 03:10:43;;;;;;;28.95;8.45;;;;;;;14.88;51.65;92042.13;5066963;28;20037;-83
2022/11/23 03:13:09;;;;;;;23.13;7.22;;;;;;;14.90;51.61;92053.22;5068187;28;20044;-87
2022/11/23 03:15:34;;;;;;;38.97;8.85;;;;;;;14.89;51.35;92049.03;5068208;28;20070;-85
2022/11/23 03:18:00;;;;;;;22.63;8.15;;;;;;;14.90;51.58;92047.06;5050028;28;20024;-84
2022/11/23 03:20:25;;;;;;;28.88;8.18;;;;;;;14.89;51.36;92046.31;5067945;28;20045;-84
2022/11/23 03:22:50;;;;;;;16.77;7.60;;;;;;;14.88;51.40;92058.47;5067127;28;20052;-85
2022/11/23 03:25:16;;;;;;;25.00;7.65;;;;;;;14.87;51.52;92051.56;5067601;28;20782;-84
2022/11/23 03:27:41;;;;;;;30.70;7.43;;;;;;;14.87;51.32;92053.53;5068372;28;20036;-85
2022/11/23 03:30:07;;;;;;;28.05;7.15;;;;;;;14.87;51.16;92054.28;5066740;28;20040;-85
2022/11/23 03:32:34;;;;;;;39.47;11.57;;;;;;;14.87;52.01;92059.72;5050544;28;20033;-91
2022/11/23 03:34:59;;;;;;;37.10;9.90;;;;;;;14.89;52.08;92053.75;5066844;28;20032;-85
2022/11/23 03:37:24;;;;;;;42.55;12.65;;;;;;;14.89;51.40;92056.47;5073730;28;20098;-84
2022/11/23 03:39:50;;;;;;;32.90;11.88;;;;;;;14.86;51.51;92052.81;5083447;28;20063;-84
2022/11/23 03:42:15;;;;;;;17.90;8.23;;;;;;;14.86;51.29;92047.38;5070166;28;20044;-84
2022/11/23 03:44:41;;;;;;;20.85;10.25;;;;;;;14.88;51.49;92061.19;5091479;28;20395;-84
2022/11/23 03:47:06;;;;;;;31.60;10.10;;;;;;;14.88;51.37;92060.44;5071975;28;20044;-84
2022/11/23 03:49:31;;;;;;;42.70;10.55;;;;;;;14.91;51.73;92056.69;5077534;28;20097;-83
2022/11/23 03:51:57;;;;;;;26.30;8.93;;;;;;;14.87;51.43;92053.53;5070181;28;20037;-84
2022/11/23 03:54:22;;;;;;;27.45;9.98;;;;;;;14.88;51.21;92060.44;5068481;28;20041;-84
2022/11/23 03:56:49;;;;;;;43.58;10.43;;;;;;;14.85;51.67;92054.06;5067382;28;20051;-83
2022/11/23 03:59:14;;;;;;;25.33;8.77;;;;;;;14.88;51.63;92060.44;5087251;28;20615;-84
2022/11/23 04:01:40;;;;;;;24.88;8.15;;;;;;;14.86;51.62;92060.22;5078675;28;20075;-83
2022/11/23 04:04:05;;;;;;;38.25;9.52;;;;;;;14.87;51.48;92056.25;5069168;28;20035;-88
2022/11/23 04:06:30;;;;;;;25.70;7.65;;;;;;;14.86;51.23;92060.97;5048468;28;20029;-83
2022/11/23 04:08:56;;;;;;;39.30;8.93;;;;;;;14.86;51.83;92054.78;5071499;28;20032;-84
2022/11/23 04:11:21;;;;;;;32.75;8.77;;;;;;;14.89;51.76;92065.38;5069036;28;20045;-83
2022/11/23 04:13:47;;;;;;;32.60;9.65;;;;;;;14.89;51.58;92056.47;5071290;28;20029;-84
2022/11/23 04:16:12;;;;;;;29.25;8.25;;;;;;;14.91;51.49;92059.41;5082558;28;20047;-84
2022/11/23 04:18:38;;;;;;;21.92;7.95;;;;;;;14.91;51.31;92051.25;5083561;28;20025;-84
2022/11/23 04:21:03;;;;;;;25.88;8.15;;;;;;;14.87;51.24;92056.25;5071666;28;20039;-88
2022/11/23 04:23:29;;;;;;;30.35;9.20;;;;;;;14.88;51.49;92052.28;5070831;28;20153;-84
2022/11/23 04:25:54;;;;;;;18.92;8.13;;;;;;;14.87;51.20;92061.69;5071739;28;20577;-86
2022/11/23 04:28:19;;;;;;;182.45;120.38;;;;;;;14.93;51.60;92057.63;5070300;28;20052;-84
2022/11/23 04:30:45;;;;;;;52.00;26.35;;;;;;;14.91;51.55;92060.16;5076702;28;20047;-83
2022/11/23 04:33:11;;;;;;;35.53;10.13;;;;;;;14.92;51.51;92058.88;5071511;28;20129;-85
2022/11/23 04:35:37;;;;;;;27.92;9.50;;;;;;;14.94;51.34;92056.34;5077097;28;20046;-83
2022/11/23 04:38:03;;;;;;;23.55;9.20;;;;;;;14.92;51.44;92060.88;5087895;28;20040;-84
2022/11/23 04:40:30;;;;;;;17.23;7.80;;;;;;;14.93;51.20;92065.06;5082134;28;20040;-83
2022/11/23 04:42:56;;;;;;;22.25;9.20;;;;;;;14.97;51.50;92060.03;5070760;28;20041;-85
2022/11/23 04:45:21;;;;;;;22.38;8.57;;;;;;;14.91;51.13;92068.31;5081959;28;20046;-88
2022/11/23 04:47:46;;;;;;;24.17;10.48;;;;;;;14.92;51.20;92056.16;5072669;28;20113;-86
2022/11/23 04:50:12;;;;;;;21.27;9.57;;;;;;;14.97;51.41;92057.31;5068048;28;20524;-85
2022/11/23 04:52:37;;;;;;;14.93;7.85;;;;;;;14.95;51.09;92062.53;5051193;28;20040;-83
2022/11/23 04:55:03;;;;;;;21.02;9.05;;;;;;;14.93;51.33;92071.25;5068787;28;20048;-87
2022/11/23 04:57:28;;;;;;;35.75;12.60;;;;;;;14.95;51.68;92060.56;5088342;28;20032;-84
2022/11/23 04:59:54;;;;;;;34.25;11.15;;;;;;;14.97;51.77;92073.63;5088275;28;20032;-84
2022/11/23 05:02:19;;;;;;;23.75;8.90;;;;;;;14.95;51.19;92076.88;5078403;28;20094;-84
2022/11/23 05:04:45;;;;;;;25.65;9.38;;;;;;;14.95;51.54;92073.41;5051057;28;20047;-84
2022/11/23 05:07:10;;;;;;;24.75;9.48;;;;;;;14.93;51.68;92062.34;5068614;28;20047;-83
2022/11/23 05:09:36;;;;;;;21.10;9.15;;;;;;;14.96;51.56;92064.75;5088998;28;20039;-85
2022/11/23 05:12:02;;;;;;;21.35;7.95;;;;;;;14.91;51.27;92068.31;5089332;28;20036;-86
2022/11/23 05:14:27;;;;;;;38.13;10.77;;;;;;;14.93;51.51;92071.25;5067529;28;20040;-83
2022/11/23 05:16:53;;;;;;;29.77;8.82;;;;;;;14.96;51.66;92074.88;5050869;28;20405;-84
2022/11/23 05:19:18;;;;;;;22.52;8.90;;;;;;;14.90;51.45;92074.25;5070330;28;20037;-86
2022/11/23 05:21:43;;;;;;;23.90;8.32;;;;;;;14.91;51.36;92065.59;5083800;28;20048;-83
2022/11/23 05:24:09;;;;;;;25.73;8.40;;;;;;;14.94;51.13;92067.25;5073065;28;20041;-84
2022/11/23 05:26:34;;;;;;;22.13;8.73;;;;;;;14.90;50.51;92072.28;5047234;28;20449;-83
2022/11/23 05:29:00;;;;;;;21.75;8.10;;;;;;;14.91;51.31;92073.75;5060770;28;20048;-88
2022/11/23 05:31:26;;;;;;;33.30;9.57;;;;;;;14.93;51.76;92076.69;5069543;28;20051;-84
2022/11/23 05:33:51;;;;;;;424.60;351.02;;;;;;;14.96;51.57;92075.63;5066652;28;20056;-83
2022/11/23 05:36:17;;;;;;;33.47;14.05;;;;;;;15.02;52.08;92072.81;5077540;28;20070;-84
2022/11/23 05:38:42;;;;;;;42.63;13.40;;;;;;;14.99;51.55;92071.13;5053284;28;20032;-85
2022/11/23 05:41:08;;;;;;;38.35;16.73;;;;;;;15.02;52.06;92073.53;5084877;28;20036;-84
2022/11/23 05:43:33;;;;;;;48.20;19.80;;;;;;;15.06;51.69;92078.69;5073086;28;20638;-85
2022/11/23 05:45:59;;;;;;;57.55;25.02;;;;;;;15.06;51.89;92076.69;5066375;28;20260;-86
2022/11/23 05:48:25;;;;;;;74.65;24.85;;;;;;;15.09;51.43;92077.66;5051700;28;20035;-88
2022/11/23 05:50:50;;;;;;;94.43;34.08;;;;;;;15.06;51.17;92075.97;5066034;28;20044;-90
2022/11/23 05:53:16;;;;;;;81.43;34.17;;;;;;;15.11;50.95;92074.41;5067014;28;20093;-85
2022/11/23 05:55:41;;;;;;;74.13;34.50;;;;;;;15.11;51.07;92086.03;5077373;28;20075;-85
2022/11/23 05:58:07;;;;;;;76.70;34.45;;;;;;;15.08;51.22;92076.91;5069304;28;20040;-88
2022/11/23 06:00:32;;;;;;;99.32;47.30;;;;;;;15.06;51.35;92075.97;5062491;28;20298;-86
2022/11/23 06:03:01;;;;;;;108.47;44.03;;;;;;;15.09;50.94;92085.81;5067290;28;20497;-86
2022/11/23 06:05:27;;;;;;;124.30;52.40;;;;;;;15.09;51.07;92085.81;5074177;28;20489;-87
2022/11/23 06:07:52;;;;;;;123.70;56.72;;;;;;;15.09;51.12;92085.81;5049982;28;20132;-86
2022/11/23 06:10:18;;;;;;;106.05;51.13;;;;;;;15.07;51.29;92074.72;5051370;28;20036;-88
2022/11/23 06:12:44;;;;;;;117.10;43.13;;;;;;;15.07;49.62;92080.16;5050182;28;20033;-86
2022/11/23 06:15:11;;;;;;;95.03;33.70;;;;;;;15.00;48.86;92086.94;5046434;28;20032;-82
2022/11/23 06:17:36;;;;;;;103.53;38.15;;;;;;;15.00;49.68;92091.66;5052351;28;20327;-88
2022/11/23 06:20:04;;;;;;;92.70;38.63;;;;;;;15.00;49.50;92073.34;5043484;28;20047;-89
2022/11/23 06:22:29;;;;;;;132.73;53.33;;;;;;;15.00;50.42;92078.78;5042778;28;20414;-87
2022/11/23 06:24:55;;;;;;;138.13;55.65;;;;;;;15.02;50.16;92080.97;5051465;28;20557;-87
2022/11/23 06:27:20;;;;;;;104.25;42.33;;;;;;;15.03;49.58;92088.63;5045146;28;20052;-85
2022/11/23 06:29:46;;;;;;;80.13;32.83;;;;;;;14.97;48.87;92087.25;5066948;28;20340;-86
2022/11/23 06:32:11;;;;;;;87.10;38.08;;;;;;;15.01;49.64;92087.66;5066676;28;20407;-91
2022/11/23 06:34:37;;;;;;;92.72;40.83;;;;;;;15.01;49.73;92091.13;5042227;28;20884;-88
2022/11/23 06:37:02;;;;;;;101.57;40.92;;;;;;;15.04;49.96;92081.19;5074967;28;20073;-86
2022/11/23 06:39:27;;;;;;;75.53;35.17;;;;;;;14.99;49.67;92085.47;5059355;28;20054;-87
2022/11/23 06:41:53;;;;;;;82.03;35.97;;;;;;;15.01;49.73;92098.56;5086646;28;20116;-86
2022/11/23 06:44:18;;;;;;;70.65;36.13;;;;;;;14.98;49.83;92100.31;5058588;28;20037;-89
2022/11/23 06:46:44;;;;;;;95.68;41.05;;;;;;;14.98;49.65;92097.59;5060454;28;20057;-89
2022/11/23 06:49:09;;;;;;;104.57;48.08;;;;;;;15.01;49.40;92102.00;5072402;28;20473;-87
2022/11/23 06:51:35;;;;;;;102.03;46.78;;;;;;;15.04;48.85;92094.81;5048242;28;20457;-88
2022/11/23 06:54:00;;;;;;;84.78;40.97;;;;;;;15.00;49.29;92088.94;5067936;28;20044;-88
2022/11/23 06:56:26;;;;;;;83.90;40.55;;;;;;;15.04;49.23;92103.69;5067168;28;20839;-87
2022/11/23 06:58:51;;;;;;;80.13;40.35;;;;;;;15.02;49.26;92102.75;5049495;28;20309;-87
2022/11/23 07:01:18;;;;;;;76.30;38.63;;;;;;;15.01;49.12;92102.00;5083092;28;20048;-91
2022/11/23 07:03:43;;;;;;;94.50;39.17;;;;;;;15.03;49.11;92109.66;5056206;28;20073;-89
2022/11/23 07:06:09;;;;;;;72.25;34.15;;;;;;;15.08;49.31;92101.41;5049191;28;20268;-85
2022/11/23 07:08:35;;;;;;;111.07;48.75;;;;;;;15.10;49.35;92106.34;5054300;28;20115;-90
2022/11/23 07:11:05;;;;;;;139.15;86.13;;;;;;;15.12;49.39;92109.28;5064652;28;20332;-87
2022/11/23 07:13:31;;;;;;;87.13;50.53;;;;;;;15.14;49.18;92109.50;5038425;28;20040;-86
2022/11/23 07:15:57;;;;;;;79.30;39.72;;;;;;;15.16;49.16;92109.69;5051936;28;20037;-87
2022/11/23 07:18:23;;;;;;;68.68;36.47;;;;;;;15.21;48.59;92110.84;5083863;28;20600;-87
2022/11/23 07:20:48;;;;;;;64.22;34.65;;;;;;;15.19;49.24;92113.34;5054578;28;20040;-87
2022/11/23 07:23:14;;;;;;;62.72;31.98;;;;;;;15.22;48.75;92112.31;5042340;28;20113;-86
2022/11/23 07:25:39;;;;;;;55.20;30.90;;;;;;;15.18;48.56;92112.63;5060546;28;20071;-85
2022/11/23 07:28:05;;;;;;;58.47;32.00;;;;;;;15.18;49.10;92120.03;5063465;28;20064;-91
2022/11/23 07:30:31;;;;;;;53.63;28.40;;;;;;;15.16;49.23;92117.09;5061668;28;20093;-86
2022/11/23 07:33:00;;;;;;;60.45;29.20;;;;;;;15.12;48.93;92116.69;5046857;28;20052;-87
2022/11/23 07:35:26;;;;;;;54.20;28.75;;;;;;;15.12;48.88;92124.88;5088182;28;20041;-88
2022/11/23 07:37:51;;;;;;;55.35;28.85;;;;;;;15.08;49.03;92128.63;5070084;28;20043;-89
2022/11/23 07:40:17;;;;;;;52.40;28.73;;;;;;;15.07;48.96;92126.41;5066273;28;20038;-85
2022/11/23 07:42:43;;;;;;;59.15;26.45;;;;;;;15.05;49.12;92118.78;5053453;28;20402;-87
2022/11/23 07:45:09;;;;;;;57.42;31.50;;;;;;;15.06;49.13;92124.94;5066742;28;20063;-88
2022/11/23 07:47:34;;;;;;;60.50;32.65;;;;;;;15.09;48.81;92129.34;5066554;28;20497;-84
2022/11/23 07:50:00;;;;;;;82.82;32.67;;;;;;;15.09;48.84;92130.09;5062004;28;20529;-86
2022/11/23 07:52:25;;;;;;;54.30;28.58;;;;;;;15.03;48.56;92123.25;5049671;28;20363;-86
2022/11/23 07:54:50;;;;;;;54.92;28.08;;;;;;;15.05;48.70;92121.50;5055641;28;20044;-87
2022/11/23 07:57:17;;;;;;;82.30;38.67;;;;;;;15.04;49.45;92125.47;5055315;28;20325;-88
2022/11/23 07:59:42;;;;;;;105.15;55.00;;;;;;;15.06;48.92;92131.13;5074899;28;20032;-88
2022/11/23 08:02:11;;;;;;;146.00;89.18;;;;;;;15.08;48.96;92123.19;5069782;28;20028;-85
2022/11/23 08:04:36;;;;;;;250.40;132.90;;;;;;;15.12;49.35;92122.88;5066088;28;20117;-87
2022/11/23 08:07:02;;;;;;;395.40;270.95;;;;;;;15.12;49.03;92125.59;5061976;28;20076;-85
2022/11/23 08:09:28;;;;;;;268.05;172.52;;;;;;;15.09;49.29;92121.94;5054098;28;20033;-86
2022/11/23 08:11:53;;;;;;;230.75;133.73;;;;;;;15.13;49.08;92127.06;5081122;28;20060;-87
2022/11/23 08:14:19;;;;;;;274.83;171.13;;;;;;;15.12;49.32;92122.16;5073669;28;20055;-88
2022/11/23 08:16:47;;;;;;;245.18;147.50;;;;;;;15.12;49.37;92133.75;5074087;28;20455;-89
2022/11/23 08:19:13;;;;;;;190.55;106.97;;;;;;;15.12;49.10;92131.03;5053453;28;20037;-87
2022/11/23 08:21:39;;;;;;;175.43;106.30;;;;;;;15.15;49.20;92129.28;5072315;28;20036;-87
2022/11/23 08:24:04;;;;;;;163.70;95.72;;;;;;;15.14;49.20;92125.09;5073742;28;20414;-85
2022/11/23 08:26:30;;;;;;;165.75;96.22;;;;;;;15.13;49.12;92127.06;5066488;28;20048;-87
2022/11/23 08:28:56;;;;;;;186.27;94.63;;;;;;;15.15;49.15;92121.84;5042279;28;20503;-86
2022/11/23 08:31:21;;;;;;;206.75;92.75;;;;;;;15.15;49.23;92123.84;5048369;28;20094;-87
2022/11/23 08:33:47;;;;;;;163.60;86.25;;;;;;;15.16;49.16;92117.09;5069164;28;20112;-85
2022/11/23 08:36:12;;;;;;;168.60;84.35;;;;;;;15.15;49.12;92113.69;5063217;28;20430;-85
2022/11/23 08:38:38;;;;;;;142.40;71.00;;;;;;;15.15;49.52;92119.13;5067510;28;20036;-90
2022/11/23 08:41:04;;;;;;;138.30;72.53;;;;;;;15.17;49.44;92110.41;5047945;28;20101;-87
2022/11/23 08:43:30;;;;;;;129.55;75.22;;;;;;;15.19;49.76;92114.06;5051865;28;20111;-85
2022/11/23 08:45:58;;;;;;;118.30;69.45;;;;;;;15.16;49.38;92120.56;5051665;28;20047;-85
2022/11/23 08:48:24;;;;;;;114.55;60.20;;;;;;;15.19;49.57;92105.91;5067203;28;20039;-88
2022/11/23 08:50:49;;;;;;;120.47;65.93;;;;;;;15.19;49.15;92108.63;5046587;28;20036;-84
2022/11/23 08:53:15;;;;;;;111.95;60.85;;;;;;;15.19;49.34;92105.19;5048000;28;20119;-87
2022/11/23 08:55:41;;;;;;;111.53;59.92;;;;;;;15.19;49.31;92108.63;5044509;28;20068;-89
2022/11/23 08:58:07;;;;;;;105.25;61.80;;;;;;;15.17;49.08;92105.69;5045070;28;20068;-86
2022/11/23 09:00:33;;;;;;;100.15;58.38;;;;;;;15.17;49.39;92113.13;5050523;28;20501;-93
2022/11/23 09:02:58;;;;;;;107.78;55.03;;;;;;;15.18;49.17;92118.06;5058259;28;20064;-85
2022/11/23 09:05:24;;;;;;;115.22;56.42;;;;;;;15.23;49.38;92111.78;5052636;28;20036;-86
2022/11/23 09:07:50;;;;;;;98.65;52.60;;;;;;;15.20;49.37;92110.09;5068596;28;20036;-91
2022/11/23 09:10:15;;;;;;;99.93;51.80;;;;;;;15.17;49.49;92118.56;5048434;28;20034;-86
2022/11/23 09:12:41;;;;;;;105.15;53.75;;;;;;;15.15;49.60;92130.00;5060529;28;20043;-85
2022/11/23 09:15:07;;;;;;;100.25;53.22;;;;;;;15.17;49.28;92124.03;5077255;28;20724;-84
2022/11/23 09:17:32;;;;;;;116.82;67.63;;;;;;;15.21;49.43;92125.19;5047912;28;20169;-91
2022/11/23 09:19:58;;;;;;;142.43;83.78;;;;;;;15.16;49.19;92128.72;5083077;28;20048;-87
2022/11/23 09:22:23;;;;;;;227.88;145.68;;;;;;;15.16;49.29;92128.72;5074432;28;20040;-89
2022/11/23 09:24:48;;;;;;;303.08;207.95;;;;;;;15.20;49.49;92131.16;5049598;28;20079;-90
2022/11/23 09:27:14;;;;;;;230.55;116.07;;;;;;;15.23;49.40;92124.66;5062114;28;20082;-87
2022/11/23 09:29:39;;;;;;;181.60;107.95;;;;;;;15.21;49.27;92127.91;5035221;28;20399;-89
2022/11/23 09:32:05;;;;;;;151.25;87.85;;;;;;;15.22;49.38;92126.66;5054004;28;20123;-86
2022/11/23 09:34:30;;;;;;;168.80;96.63;;;;;;;15.20;49.31;92122.97;5054764;28;20110;-86
2022/11/23 09:36:56;;;;;;;154.68;90.55;;;;;;;15.21;49.56;92127.16;5051813;28;20498;-85
2022/11/23 09:39:24;;;;;;;140.07;83.13;;;;;;;15.19;49.49;92118.78;5072553;28;20406;-92
2022/11/23 09:41:49;;;;;;;138.10;79.45;;;;;;;15.21;49.60;92125.19;5048584;28;20410;-84
2022/11/23 09:44:34;;;;;;;133.20;78.57;;;;;;;15.18;49.44;92115.34;5086268;28;20044;-86
2022/11/23 09:47:05;;;;;;;129.88;71.88;;;;;;;15.20;49.53;92125.69;5082033;28;20040;-87
2022/11/23 09:49:34;;;;;;;112.43;65.60;;;;;;;15.22;49.40;92120.47;5084256;28;20033;-87
2022/11/23 09:51:59;;;;;;;143.73;80.18;;;;;;;15.22;49.41;92121.22;5077321;28;20070;-88
2022/11/23 09:54:29;;;;;;;218.73;111.63;;;;;;;15.21;49.84;92119.75;5051480;28;20044;-86
2022/11/23 09:56:55;;;;;;;204.15;108.28;;;;;;;15.24;49.33;92129.59;5052859;28;20032;-85
2022/11/23 09:59:40;;;;;;;230.20;122.60;;;;;;;15.25;49.43;92120.16;5084986;28;20075;-87
2022/11/23 10:02:07;;;;;;;212.73;115.72;;;;;;;15.24;49.68;92126.88;5054645;28;20062;-87
2022/11/23 10:04:33;;;;;;;236.77;117.07;;;;;;;15.25;49.54;92125.63;5050746;28;20040;-86
2022/11/23 10:07:16;;;;;;;207.02;111.70;;;;;;;15.24;49.38;92126.13;5053136;28;20054;-88
2022/11/23 10:09:50;;;;;;;198.05;102.80;;;;;;;15.27;49.12;92130.53;5080532;28;20065;-87
2022/11/23 10:12:37;;;;;;;200.18;107.57;;;;;;;15.24;49.28;92129.59;5071533;28;20103;-86
2022/11/23 10:15:12;;;;;;;180.90;102.80;;;;;;;15.23;49.08;92135.56;5084509;28;20463;-87
2022/11/23 10:18:03;;;;;;;182.27;98.88;;;;;;;15.26;49.32;92132.53;5082486;28;20498;-88
2022/11/23 10:20:41;;;;;;;167.18;96.55;;;;;;;15.29;49.33;92136.19;5081527;28;20052;-86
2022/11/23 10:23:12;;;;;;;169.88;96.35;;;;;;;15.27;49.37;92136.00;5069719;28;20036;-87
2022/11/23 10:25:49;;;;;;;163.75;90.13;;;;;;;15.29;49.35;92133.47;5047253;28;20057;-88
2022/11/23 10:28:17;;;;;;;162.68;89.57;;;;;;;15.26;49.03;92132.53;5046822;28;20098;-87
2022/11/23 10:30:50;;;;;;;90.00;50.13;;;;;;;15.13;46.32;92123.63;5051140;28;20051;-87
2022/11/23 10:33:27;;;;;;;71.30;37.83;;;;;;;15.03;45.36;92128.72;5050298;28;20044;-86
2022/11/23 10:35:54;;;;;;;87.10;38.17;;;;;;;14.96;45.11;92129.31;5051848;28;20064;-88
2022/11/23 10:38:20;;;;;;;92.70;41.17;;;;;;;14.95;45.59;92125.84;5048120;28;20032;-87
2022/11/23 10:40:54;;;;;;;66.15;35.97;;;;;;;14.96;45.75;92127.31;5043045;28;20039;-87
2022/11/23 10:43:24;;;;;;;90.82;47.25;;;;;;;14.99;46.24;92126.28;5080203;28;20040;-85
2022/11/23 10:45:50;;;;;;;82.07;43.85;;;;;;;15.03;47.60;92126.00;5078235;28;20383;-86
2022/11/23 10:48:34;;;;;;;106.53;56.50;;;;;;;15.04;48.18;92122.00;5063910;28;20064;-90
2022/11/23 10:51:24;;;;;;;109.68;64.60;;;;;;;15.09;47.54;92124.66;5038415;28;20492;-87
2022/11/23 10:53:52;;;;;;;127.93;64.28;;;;;;;15.09;47.71;92116.50;5065438;28;20044;-84
2022/11/23 10:56:17;;;;;;;121.88;60.72;;;;;;;15.11;47.68;92115.22;5061802;28;20036;-85
2022/11/23 10:58:44;;;;;;;133.73;67.65;;;;;;;15.12;47.56;92120.16;5049290;28;20047;-84
2022/11/23 11:01:21;;;;;;;183.00;80.30;;;;;;;15.12;47.88;92122.88;5065008;28;20035;-83
2022/11/23 11:03:48;;;;;;;149.10;71.25;;;;;;;15.12;48.23;92114.72;5053124;28;20051;-85
2022/11/23 11:06:22;;;;;;;137.13;69.72;;;;;;;15.13;48.02;92120.91;5054080;28;20036;-88
2022/11/23 11:08:50;;;;;;;135.15;67.03;;;;;;;15.13;48.28;92113.47;5050451;28;20036;-88
2022/11/23 11:11:29;;;;;;;142.48;70.82;;;;;;;15.13;48.73;92110.00;5051847;28;20135;-86
2022/11/23 11:14:11;;;;;;;129.32;66.00;;;;;;;15.13;48.28;92115.44;5069949;28;20038;-88
2022/11/23 11:16:36;;;;;;;132.00;60.30;;;;;;;15.14;48.37;92116.91;5071122;28;20033;-86